sensor_id;sensor_type;location;lat;lon;timestamp;temperature;humidity
23079;DHT22;11707;50.830;4.364;2023-11-18T00:01:34;8.80;54.20
23079;DHT22;11707;50.830;4.364;2023-11-18T00:04:00;8.70;53.00
23079;DHT22;11707;50.830;4.364;2023-11-18T00:06:26;8.70;50.30
23079;DHT22;11707;50.830;4.364;2023-11-18T00:08:52;8.80;49.60
23079;DHT22;11707;50.830;4.364;2023-11-18T00:11:20;8.80;48.60
23079;DHT22;11707;50.830;4.364;2023-11-18T00:13:46;8.80;47.30
23079;DHT22;11707;50.830;4.364;2023-11-18T00:16:12;8.70;44.90
23079;DHT22;11707;50.830;4.364;2023-11-18T00:18:43;8.80;48.10
23079;DHT22;11707;50.830;4.364;2023-11-18T00:21:09;8.80;45.60
23079;DHT22;11707;50.830;4.364;2023-11-18T00:23:35;8.80;41.50
23079;DHT22;11707;50.830;4.364;2023-11-18T00:26:01;8.80;42.80
23079;DHT22;11707;50.830;4.364;2023-11-18T00:28:27;8.90;41.90
23079;DHT22;11707;50.830;4.364;2023-11-18T00:30:53;8.90;33.70
23079;DHT22;11707;50.830;4.364;2023-11-18T00:33:19;8.80;36.80
23079;DHT22;11707;50.830;4.364;2023-11-18T00:35:44;8.80;38.90
23079;DHT22;11707;50.830;4.364;2023-11-18T00:38:11;8.70;36.50
23079;DHT22;11707;50.830;4.364;2023-11-18T00:40:40;8.60;39.80
23079;DHT22;11707;50.830;4.364;2023-11-18T00:43:05;8.60;42.60
23079;DHT22;11707;50.830;4.364;2023-11-18T00:45:31;8.40;47.90
23079;DHT22;11707;50.830;4.364;2023-11-18T00:47:57;8.20;60.20
23079;DHT22;11707;50.830;4.364;2023-11-18T00:50:23;8.30;61.50
23079;DHT22;11707;50.830;4.364;2023-11-18T00:52:49;8.30;63.90
23079;DHT22;11707;50.830;4.364;2023-11-18T00:55:15;8.40;60.00
23079;DHT22;11707;50.830;4.364;2023-11-18T00:57:44;8.50;50.30
23079;DHT22;11707;50.830;4.364;2023-11-18T01:00:14;8.40;48.30
23079;DHT22;11707;50.830;4.364;2023-11-18T01:02:42;8.20;50.10
23079;DHT22;11707;50.830;4.364;2023-11-18T01:05:08;8.10;65.90
23079;DHT22;11707;50.830;4.364;2023-11-18T01:07:34;8.10;69.00
23079;DHT22;11707;50.830;4.364;2023-11-18T01:10:04;8.20;71.00
23079;DHT22;11707;50.830;4.364;2023-11-18T01:12:30;8.20;65.90
23079;DHT22;11707;50.830;4.364;2023-11-18T01:14:56;8.30;66.60
23079;DHT22;11707;50.830;4.364;2023-11-18T01:17:21;8.40;65.70
23079;DHT22;11707;50.830;4.364;2023-11-18T01:19:48;8.50;53.30
23079;DHT22;11707;50.830;4.364;2023-11-18T01:22:13;8.60;46.80
23079;DHT22;11707;50.830;4.364;2023-11-18T01:24:39;8.50;41.50
23079;DHT22;11707;50.830;4.364;2023-11-18T01:27:05;8.70;47.00
23079;DHT22;11707;50.830;4.364;2023-11-18T01:29:33;8.60;45.60
23079;DHT22;11707;50.830;4.364;2023-11-18T01:31:59;8.50;46.70
23079;DHT22;11707;50.830;4.364;2023-11-18T01:34:24;8.40;48.30
23079;DHT22;11707;50.830;4.364;2023-11-18T01:36:51;8.30;50.50
23079;DHT22;11707;50.830;4.364;2023-11-18T01:39:19;8.30;56.20
23079;DHT22;11707;50.830;4.364;2023-11-18T01:41:52;8.30;60.50
23079;DHT22;11707;50.830;4.364;2023-11-18T01:44:17;8.30;61.30
23079;DHT22;11707;50.830;4.364;2023-11-18T01:46:45;8.30;63.10
23079;DHT22;11707;50.830;4.364;2023-11-18T01:49:14;8.30;65.80
23079;DHT22;11707;50.830;4.364;2023-11-18T01:51:44;8.40;59.20
23079;DHT22;11707;50.830;4.364;2023-11-18T01:54:12;8.30;57.40
23079;DHT22;11707;50.830;4.364;2023-11-18T01:56:42;8.20;61.60
23079;DHT22;11707;50.830;4.364;2023-11-18T01:59:09;8.20;64.60
23079;DHT22;11707;50.830;4.364;2023-11-18T02:01:35;8.20;64.00
23079;DHT22;11707;50.830;4.364;2023-11-18T02:04:02;8.10;73.60
23079;DHT22;11707;50.830;4.364;2023-11-18T02:06:31;8.20;75.70
23079;DHT22;11707;50.830;4.364;2023-11-18T02:08:59;8.10;68.90
23079;DHT22;11707;50.830;4.364;2023-11-18T02:11:39;8.10;69.40
23079;DHT22;11707;50.830;4.364;2023-11-18T02:14:09;8.20;67.20
23079;DHT22;11707;50.830;4.364;2023-11-18T02:16:40;8.20;64.00
23079;DHT22;11707;50.830;4.364;2023-11-18T02:19:19;8.20;65.90
23079;DHT22;11707;50.830;4.364;2023-11-18T02:21:47;8.30;62.70
23079;DHT22;11707;50.830;4.364;2023-11-18T02:24:33;8.20;61.00
23079;DHT22;11707;50.830;4.364;2023-11-18T02:27:04;8.20;65.70
23079;DHT22;11707;50.830;4.364;2023-11-18T02:29:38;8.20;69.40
23079;DHT22;11707;50.830;4.364;2023-11-18T02:34:48;8.30;61.10
23079;DHT22;11707;50.830;4.364;2023-11-18T02:37:18;8.50;56.60
23079;DHT22;11707;50.830;4.364;2023-11-18T02:39:51;8.50;47.20
23079;DHT22;11707;50.830;4.364;2023-11-18T02:42:20;8.50;46.00
23079;DHT22;11707;50.830;4.364;2023-11-18T02:44:49;8.40;47.40
23079;DHT22;11707;50.830;4.364;2023-11-18T02:47:17;8.30;52.90
23079;DHT22;11707;50.830;4.364;2023-11-18T02:49:42;8.20;59.10
23079;DHT22;11707;50.830;4.364;2023-11-18T02:52:08;8.10;67.40
23079;DHT22;11707;50.830;4.364;2023-11-18T02:54:37;8.10;68.20
23079;DHT22;11707;50.830;4.364;2023-11-18T02:57:03;8.10;70.90
23079;DHT22;11707;50.830;4.364;2023-11-18T02:59:29;8.10;70.20
23079;DHT22;11707;50.830;4.364;2023-11-18T03:01:56;8.20;70.00
23079;DHT22;11707;50.830;4.364;2023-11-18T03:04:22;8.20;65.30
23079;DHT22;11707;50.830;4.364;2023-11-18T03:06:51;8.20;69.30
23079;DHT22;11707;50.830;4.364;2023-11-18T03:09:17;8.20;66.80
23079;DHT22;11707;50.830;4.364;2023-11-18T03:11:44;8.20;63.80
23079;DHT22;11707;50.830;4.364;2023-11-18T03:14:09;8.30;62.30
23079;DHT22;11707;50.830;4.364;2023-11-18T03:16:37;8.40;61.40
23079;DHT22;11707;50.830;4.364;2023-11-18T03:19:03;8.40;54.50
23079;DHT22;11707;50.830;4.364;2023-11-18T03:21:30;8.40;53.20
23079;DHT22;11707;50.830;4.364;2023-11-18T03:23:56;8.40;52.10
23079;DHT22;11707;50.830;4.364;2023-11-18T03:26:22;8.40;51.40
23079;DHT22;11707;50.830;4.364;2023-11-18T03:28:47;8.40;53.20
23079;DHT22;11707;50.830;4.364;2023-11-18T03:31:13;8.40;49.70
23079;DHT22;11707;50.830;4.364;2023-11-18T03:33:40;8.40;50.60
23079;DHT22;11707;50.830;4.364;2023-11-18T03:36:06;8.50;46.70
23079;DHT22;11707;50.830;4.364;2023-11-18T03:38:34;8.40;50.70
23079;DHT22;11707;50.830;4.364;2023-11-18T03:41:00;8.30;57.30
23079;DHT22;11707;50.830;4.364;2023-11-18T03:43:26;8.30;65.50
23079;DHT22;11707;50.830;4.364;2023-11-18T03:45:54;8.40;64.20
23079;DHT22;11707;50.830;4.364;2023-11-18T03:48:24;8.50;54.20
23079;DHT22;11707;50.830;4.364;2023-11-18T03:50:51;8.50;51.20
23079;DHT22;11707;50.830;4.364;2023-11-18T03:53:16;8.40;54.80
23079;DHT22;11707;50.830;4.364;2023-11-18T03:55:42;8.50;57.20
23079;DHT22;11707;50.830;4.364;2023-11-18T03:58:08;8.60;51.40
23079;DHT22;11707;50.830;4.364;2023-11-18T04:00:34;8.60;49.80
23079;DHT22;11707;50.830;4.364;2023-11-18T04:03:00;8.60;48.20
23079;DHT22;11707;50.830;4.364;2023-11-18T04:05:25;8.60;46.60
23079;DHT22;11707;50.830;4.364;2023-11-18T04:07:51;8.60;48.10
23079;DHT22;11707;50.830;4.364;2023-11-18T04:10:19;8.60;51.40
23079;DHT22;11707;50.830;4.364;2023-11-18T04:12:46;8.70;47.50
23079;DHT22;11707;50.830;4.364;2023-11-18T04:15:13;8.60;47.50
23079;DHT22;11707;50.830;4.364;2023-11-18T04:17:39;8.60;45.90
23079;DHT22;11707;50.830;4.364;2023-11-18T04:20:06;8.50;48.30
23079;DHT22;11707;50.830;4.364;2023-11-18T04:22:43;8.50;55.10
23079;DHT22;11707;50.830;4.364;2023-11-18T04:25:10;8.50;52.00
23079;DHT22;11707;50.830;4.364;2023-11-18T04:27:40;8.40;57.80
23079;DHT22;11707;50.830;4.364;2023-11-18T04:30:06;8.50;59.90
23079;DHT22;11707;50.830;4.364;2023-11-18T04:32:34;8.60;56.50
23079;DHT22;11707;50.830;4.364;2023-11-18T04:35:00;8.70;44.70
23079;DHT22;11707;50.830;4.364;2023-11-18T04:37:35;8.80;42.10
23079;DHT22;11707;50.830;4.364;2023-11-18T04:40:02;8.80;35.80
23079;DHT22;11707;50.830;4.364;2023-11-18T04:42:29;8.90;30.80
23079;DHT22;11707;50.830;4.364;2023-11-18T04:44:56;8.90;31.30
23079;DHT22;11707;50.830;4.364;2023-11-18T04:47:24;8.80;37.70
23079;DHT22;11707;50.830;4.364;2023-11-18T04:49:53;8.90;34.90
23079;DHT22;11707;50.830;4.364;2023-11-18T04:52:19;9.00;33.40
23079;DHT22;11707;50.830;4.364;2023-11-18T04:54:45;9.10;23.40
23079;DHT22;11707;50.830;4.364;2023-11-18T04:57:13;9.20;17.20
23079;DHT22;11707;50.830;4.364;2023-11-18T04:59:39;9.20;15.10
23079;DHT22;11707;50.830;4.364;2023-11-18T05:02:05;9.10;21.90
23079;DHT22;11707;50.830;4.364;2023-11-18T05:04:31;9.00;25.80
23079;DHT22;11707;50.830;4.364;2023-11-18T05:06:59;9.00;29.00
23079;DHT22;11707;50.830;4.364;2023-11-18T05:09:25;9.00;27.40
23079;DHT22;11707;50.830;4.364;2023-11-18T05:11:53;9.10;26.40
23079;DHT22;11707;50.830;4.364;2023-11-18T05:14:18;9.20;19.50
23079;DHT22;11707;50.830;4.364;2023-11-18T05:16:47;9.20;18.90
23079;DHT22;11707;50.830;4.364;2023-11-18T05:19:15;9.20;21.50
23079;DHT22;11707;50.830;4.364;2023-11-18T05:21:42;9.20;23.80
23079;DHT22;11707;50.830;4.364;2023-11-18T05:24:08;9.10;20.50
23079;DHT22;11707;50.830;4.364;2023-11-18T05:26:34;9.10;18.60
23079;DHT22;11707;50.830;4.364;2023-11-18T05:29:00;9.10;27.40
23079;DHT22;11707;50.830;4.364;2023-11-18T05:31:27;9.10;26.60
23079;DHT22;11707;50.830;4.364;2023-11-18T05:33:53;9.20;22.80
23079;DHT22;11707;50.830;4.364;2023-11-18T05:36:21;9.20;24.40
23079;DHT22;11707;50.830;4.364;2023-11-18T05:38:53;9.10;27.50
23079;DHT22;11707;50.830;4.364;2023-11-18T05:41:20;9.10;28.50
23079;DHT22;11707;50.830;4.364;2023-11-18T05:43:53;9.10;32.80
23079;DHT22;11707;50.830;4.364;2023-11-18T05:46:22;9.10;37.40
23079;DHT22;11707;50.830;4.364;2023-11-18T05:48:51;9.10;34.90
23079;DHT22;11707;50.830;4.364;2023-11-18T05:51:25;9.10;33.80
23079;DHT22;11707;50.830;4.364;2023-11-18T05:53:52;9.10;33.50
23079;DHT22;11707;50.830;4.364;2023-11-18T05:56:19;9.00;35.20
23079;DHT22;11707;50.830;4.364;2023-11-18T05:58:46;9.10;37.60
23079;DHT22;11707;50.830;4.364;2023-11-18T06:01:12;9.10;41.30
23079;DHT22;11707;50.830;4.364;2023-11-18T06:03:39;9.10;42.40
23079;DHT22;11707;50.830;4.364;2023-11-18T06:06:09;9.10;40.90
23079;DHT22;11707;50.830;4.364;2023-11-18T06:08:39;9.00;45.20
23079;DHT22;11707;50.830;4.364;2023-11-18T06:11:09;9.10;50.60
23079;DHT22;11707;50.830;4.364;2023-11-18T06:13:50;8.90;53.70
23079;DHT22;11707;50.830;4.364;2023-11-18T06:16:24;9.00;58.70
23079;DHT22;11707;50.830;4.364;2023-11-18T06:18:52;8.90;58.70
23079;DHT22;11707;50.830;4.364;2023-11-18T06:21:23;8.90;62.30
23079;DHT22;11707;50.830;4.364;2023-11-18T06:23:59;8.90;65.10
23079;DHT22;11707;50.830;4.364;2023-11-18T06:26:25;9.00;69.00
23079;DHT22;11707;50.830;4.364;2023-11-18T06:28:53;8.90;66.50
23079;DHT22;11707;50.830;4.364;2023-11-18T06:31:20;9.00;64.10
23079;DHT22;11707;50.830;4.364;2023-11-18T06:33:46;9.10;60.20
23079;DHT22;11707;50.830;4.364;2023-11-18T06:38:42;9.30;52.40
23079;DHT22;11707;50.830;4.364;2023-11-18T06:41:10;9.20;55.30
23079;DHT22;11707;50.830;4.364;2023-11-18T06:43:40;9.20;56.10
23079;DHT22;11707;50.830;4.364;2023-11-18T06:46:30;9.10;56.80
23079;DHT22;11707;50.830;4.364;2023-11-18T06:49:01;9.10;67.00
23079;DHT22;11707;50.830;4.364;2023-11-18T06:51:32;9.10;65.00
23079;DHT22;11707;50.830;4.364;2023-11-18T06:54:00;9.20;59.50
23079;DHT22;11707;50.830;4.364;2023-11-18T06:56:28;9.30;52.30
23079;DHT22;11707;50.830;4.364;2023-11-18T06:58:54;9.30;53.10
23079;DHT22;11707;50.830;4.364;2023-11-18T07:01:20;9.40;50.60
23079;DHT22;11707;50.830;4.364;2023-11-18T07:03:47;9.30;49.90
23079;DHT22;11707;50.830;4.364;2023-11-18T07:06:19;9.30;54.30
23079;DHT22;11707;50.830;4.364;2023-11-18T07:08:49;9.30;59.10
23079;DHT22;11707;50.830;4.364;2023-11-18T07:11:15;9.20;67.20
23079;DHT22;11707;50.830;4.364;2023-11-18T07:13:47;9.30;63.50
23079;DHT22;11707;50.830;4.364;2023-11-18T07:16:22;9.40;66.80
23079;DHT22;11707;50.830;4.364;2023-11-18T07:18:48;9.50;61.50
23079;DHT22;11707;50.830;4.364;2023-11-18T07:21:14;9.50;61.20
23079;DHT22;11707;50.830;4.364;2023-11-18T07:23:40;9.50;60.20
23079;DHT22;11707;50.830;4.364;2023-11-18T07:26:05;9.50;59.60
23079;DHT22;11707;50.830;4.364;2023-11-18T07:28:31;9.40;66.70
23079;DHT22;11707;50.830;4.364;2023-11-18T07:30:57;9.30;78.60
23079;DHT22;11707;50.830;4.364;2023-11-18T07:33:27;9.40;85.50
23079;DHT22;11707;50.830;4.364;2023-11-18T07:35:53;9.40;86.70
23079;DHT22;11707;50.830;4.364;2023-11-18T07:38:18;9.40;89.70
23079;DHT22;11707;50.830;4.364;2023-11-18T07:40:46;9.50;91.70
23079;DHT22;11707;50.830;4.364;2023-11-18T07:43:15;9.40;92.20
23079;DHT22;11707;50.830;4.364;2023-11-18T07:45:41;9.50;93.20
23079;DHT22;11707;50.830;4.364;2023-11-18T07:48:11;9.40;94.40
23079;DHT22;11707;50.830;4.364;2023-11-18T07:50:43;9.40;98.00
23079;DHT22;11707;50.830;4.364;2023-11-18T07:53:10;9.40;99.90
23079;DHT22;11707;50.830;4.364;2023-11-18T07:55:36;9.40;99.90
23079;DHT22;11707;50.830;4.364;2023-11-18T07:58:09;9.30;99.90
23079;DHT22;11707;50.830;4.364;2023-11-18T08:00:42;9.40;99.90
23079;DHT22;11707;50.830;4.364;2023-11-18T08:03:11;9.40;99.90
23079;DHT22;11707;50.830;4.364;2023-11-18T08:05:44;9.30;99.90
23079;DHT22;11707;50.830;4.364;2023-11-18T08:08:11;9.20;99.90
23079;DHT22;11707;50.830;4.364;2023-11-18T08:10:40;9.30;99.90
23079;DHT22;11707;50.830;4.364;2023-11-18T08:13:12;9.20;99.90
23079;DHT22;11707;50.830;4.364;2023-11-18T08:15:39;9.10;99.90
23079;DHT22;11707;50.830;4.364;2023-11-18T08:18:08;9.00;99.90
23079;DHT22;11707;50.830;4.364;2023-11-18T08:20:35;9.10;99.90
23079;DHT22;11707;50.830;4.364;2023-11-18T08:23:01;9.10;99.90
23079;DHT22;11707;50.830;4.364;2023-11-18T08:25:27;9.10;99.90
23079;DHT22;11707;50.830;4.364;2023-11-18T08:27:53;9.00;99.90
23079;DHT22;11707;50.830;4.364;2023-11-18T08:30:18;8.90;99.90
23079;DHT22;11707;50.830;4.364;2023-11-18T08:32:46;8.90;99.90
23079;DHT22;11707;50.830;4.364;2023-11-18T08:35:15;8.80;99.90
23079;DHT22;11707;50.830;4.364;2023-11-18T08:37:42;8.80;99.90
23079;DHT22;11707;50.830;4.364;2023-11-18T08:40:11;8.80;99.90
23079;DHT22;11707;50.830;4.364;2023-11-18T08:42:42;8.90;99.90
23079;DHT22;11707;50.830;4.364;2023-11-18T08:45:14;8.90;99.90
23079;DHT22;11707;50.830;4.364;2023-11-18T08:47:43;8.90;99.90
23079;DHT22;11707;50.830;4.364;2023-11-18T08:50:09;8.90;99.90
23079;DHT22;11707;50.830;4.364;2023-11-18T08:52:38;8.90;99.90
23079;DHT22;11707;50.830;4.364;2023-11-18T08:55:11;8.90;99.90
23079;DHT22;11707;50.830;4.364;2023-11-18T08:57:46;9.00;99.90
23079;DHT22;11707;50.830;4.364;2023-11-18T09:00:28;8.90;99.90
23079;DHT22;11707;50.830;4.364;2023-11-18T09:03:14;8.90;99.90
23079;DHT22;11707;50.830;4.364;2023-11-18T09:05:59;8.90;99.90
23079;DHT22;11707;50.830;4.364;2023-11-18T09:10:58;9.00;99.90
23079;DHT22;11707;50.830;4.364;2023-11-18T09:13:26;9.00;99.90
23079;DHT22;11707;50.830;4.364;2023-11-18T09:16:04;9.00;99.90
23079;DHT22;11707;50.830;4.364;2023-11-18T09:18:34;9.10;99.90
23079;DHT22;11707;50.830;4.364;2023-11-18T09:21:03;9.10;99.90
23079;DHT22;11707;50.830;4.364;2023-11-18T09:23:31;9.10;99.90
23079;DHT22;11707;50.830;4.364;2023-11-18T09:26:06;9.10;99.90
23079;DHT22;11707;50.830;4.364;2023-11-18T09:28:33;9.10;99.90
23079;DHT22;11707;50.830;4.364;2023-11-18T09:31:01;9.20;99.90
23079;DHT22;11707;50.830;4.364;2023-11-18T09:33:31;9.20;99.90
23079;DHT22;11707;50.830;4.364;2023-11-18T09:36:02;9.10;99.90
23079;DHT22;11707;50.830;4.364;2023-11-18T09:38:32;9.10;99.90
23079;DHT22;11707;50.830;4.364;2023-11-18T09:41:02;9.10;99.90
23079;DHT22;11707;50.830;4.364;2023-11-18T09:43:32;9.10;99.90
23079;DHT22;11707;50.830;4.364;2023-11-18T09:46:17;9.20;99.90
23079;DHT22;11707;50.830;4.364;2023-11-18T09:49:00;9.00;99.90
23079;DHT22;11707;50.830;4.364;2023-11-18T09:51:41;9.00;99.90
23079;DHT22;11707;50.830;4.364;2023-11-18T09:54:25;9.10;99.90
23079;DHT22;11707;50.830;4.364;2023-11-18T09:57:04;9.20;99.90
23079;DHT22;11707;50.830;4.364;2023-11-18T10:02:48;9.20;99.90
23079;DHT22;11707;50.830;4.364;2023-11-18T10:05:16;9.10;99.90
23079;DHT22;11707;50.830;4.364;2023-11-18T10:07:48;9.20;99.90
23079;DHT22;11707;50.830;4.364;2023-11-18T10:10:14;9.20;99.90
23079;DHT22;11707;50.830;4.364;2023-11-18T10:12:49;9.20;99.90
23079;DHT22;11707;50.830;4.364;2023-11-18T10:15:20;9.20;99.90
23079;DHT22;11707;50.830;4.364;2023-11-18T10:17:50;9.10;99.90
23079;DHT22;11707;50.830;4.364;2023-11-18T10:20:46;9.10;99.90
23079;DHT22;11707;50.830;4.364;2023-11-18T10:23:13;9.10;99.90
23079;DHT22;11707;50.830;4.364;2023-11-18T10:25:49;9.10;99.90
23079;DHT22;11707;50.830;4.364;2023-11-18T10:28:27;9.10;99.90
23079;DHT22;11707;50.830;4.364;2023-11-18T10:31:00;9.00;99.90
23079;DHT22;11707;50.830;4.364;2023-11-18T10:33:35;9.10;99.90
23079;DHT22;11707;50.830;4.364;2023-11-18T10:36:03;9.10;99.90
23079;DHT22;11707;50.830;4.364;2023-11-18T10:38:39;9.10;99.90
23079;DHT22;11707;50.830;4.364;2023-11-18T10:41:09;9.10;99.90
23079;DHT22;11707;50.830;4.364;2023-11-18T10:43:35;9.10;99.90
23079;DHT22;11707;50.830;4.364;2023-11-18T10:46:05;9.10;99.90
23079;DHT22;11707;50.830;4.364;2023-11-18T10:48:44;9.20;99.90
23079;DHT22;11707;50.830;4.364;2023-11-18T10:51:19;9.20;99.90
23079;DHT22;11707;50.830;4.364;2023-11-18T10:53:50;9.20;99.90
23079;DHT22;11707;50.830;4.364;2023-11-18T10:56:24;9.20;99.90
23079;DHT22;11707;50.830;4.364;2023-11-18T10:58:59;9.20;99.90
23079;DHT22;11707;50.830;4.364;2023-11-18T11:01:34;9.20;99.90
23079;DHT22;11707;50.830;4.364;2023-11-18T11:04:04;9.20;99.90
23079;DHT22;11707;50.830;4.364;2023-11-18T11:06:32;9.30;99.90
23079;DHT22;11707;50.830;4.364;2023-11-18T11:08:58;9.30;99.90
23079;DHT22;11707;50.830;4.364;2023-11-18T11:11:26;9.30;99.90
23079;DHT22;11707;50.830;4.364;2023-11-18T11:13:59;9.20;99.90
23079;DHT22;11707;50.830;4.364;2023-11-18T11:16:37;9.30;99.90
23079;DHT22;11707;50.830;4.364;2023-11-18T11:19:04;9.40;99.90
23079;DHT22;11707;50.830;4.364;2023-11-18T11:21:44;9.40;99.90
23079;DHT22;11707;50.830;4.364;2023-11-18T11:24:28;9.40;99.90
23079;DHT22;11707;50.830;4.364;2023-11-18T11:29:45;9.40;99.90
23079;DHT22;11707;50.830;4.364;2023-11-18T11:32:39;9.40;99.90
23079;DHT22;11707;50.830;4.364;2023-11-18T11:35:26;9.40;99.90
23079;DHT22;11707;50.830;4.364;2023-11-18T11:37:56;9.40;99.90
23079;DHT22;11707;50.830;4.364;2023-11-18T11:40:33;9.40;99.90
23079;DHT22;11707;50.830;4.364;2023-11-18T11:43:06;9.40;99.90
23079;DHT22;11707;50.830;4.364;2023-11-18T11:45:35;9.50;99.90
23079;DHT22;11707;50.830;4.364;2023-11-18T11:48:03;9.60;99.90
23079;DHT22;11707;50.830;4.364;2023-11-18T11:51:30;9.60;99.90
23079;DHT22;11707;50.830;4.364;2023-11-18T11:54:29;9.50;99.90
23079;DHT22;11707;50.830;4.364;2023-11-18T11:57:02;9.50;99.90
23079;DHT22;11707;50.830;4.364;2023-11-18T11:59:55;9.50;99.90
23079;DHT22;11707;50.830;4.364;2023-11-18T12:02:25;9.40;99.90
23079;DHT22;11707;50.830;4.364;2023-11-18T12:04:56;9.50;99.90
23079;DHT22;11707;50.830;4.364;2023-11-18T12:07:27;9.60;99.90
23079;DHT22;11707;50.830;4.364;2023-11-18T12:09:59;9.50;99.90
23079;DHT22;11707;50.830;4.364;2023-11-18T12:12:27;9.50;99.90
23079;DHT22;11707;50.830;4.364;2023-11-18T12:15:01;9.50;99.90
23079;DHT22;11707;50.830;4.364;2023-11-18T12:20:41;9.50;99.90
23079;DHT22;11707;50.830;4.364;2023-11-18T12:23:15;9.50;99.90
23079;DHT22;11707;50.830;4.364;2023-11-18T12:25:42;9.40;99.90
23079;DHT22;11707;50.830;4.364;2023-11-18T12:28:26;9.50;99.90
23079;DHT22;11707;50.830;4.364;2023-11-18T12:30:57;9.50;99.90
23079;DHT22;11707;50.830;4.364;2023-11-18T12:33:24;9.50;99.90
23079;DHT22;11707;50.830;4.364;2023-11-18T12:41:37;9.50;99.90
23079;DHT22;11707;50.830;4.364;2023-11-18T12:44:16;9.60;99.90
23079;DHT22;11707;50.830;4.364;2023-11-18T12:46:55;9.50;99.90
23079;DHT22;11707;50.830;4.364;2023-11-18T12:49:37;9.50;99.90
23079;DHT22;11707;50.830;4.364;2023-11-18T12:52:07;9.60;99.90
23079;DHT22;11707;50.830;4.364;2023-11-18T12:54:34;9.60;99.90
23079;DHT22;11707;50.830;4.364;2023-11-18T12:57:12;9.60;99.90
23079;DHT22;11707;50.830;4.364;2023-11-18T12:59:43;9.60;99.90
23079;DHT22;11707;50.830;4.364;2023-11-18T13:02:09;9.70;99.90
23079;DHT22;11707;50.830;4.364;2023-11-18T13:04:43;9.70;99.90
23079;DHT22;11707;50.830;4.364;2023-11-18T13:07:19;9.70;99.90
23079;DHT22;11707;50.830;4.364;2023-11-18T13:09:46;9.70;99.90
23079;DHT22;11707;50.830;4.364;2023-11-18T13:12:13;9.60;99.90
23079;DHT22;11707;50.830;4.364;2023-11-18T13:14:44;9.50;99.90
23079;DHT22;11707;50.830;4.364;2023-11-18T13:17:15;9.50;99.90
23079;DHT22;11707;50.830;4.364;2023-11-18T13:19:45;9.60;99.90
23079;DHT22;11707;50.830;4.364;2023-11-18T13:22:13;9.60;99.90
23079;DHT22;11707;50.830;4.364;2023-11-18T13:24:42;9.70;99.90
23079;DHT22;11707;50.830;4.364;2023-11-18T13:27:12;9.70;99.90
23079;DHT22;11707;50.830;4.364;2023-11-18T13:29:42;9.60;99.90
23079;DHT22;11707;50.830;4.364;2023-11-18T13:32:11;9.60;99.90
23079;DHT22;11707;50.830;4.364;2023-11-18T13:34:39;9.70;99.90
23079;DHT22;11707;50.830;4.364;2023-11-18T13:37:10;9.80;99.90
23079;DHT22;11707;50.830;4.364;2023-11-18T13:39:42;9.80;99.90
23079;DHT22;11707;50.830;4.364;2023-11-18T13:42:25;9.80;99.90
23079;DHT22;11707;50.830;4.364;2023-11-18T13:44:58;9.80;99.90
23079;DHT22;11707;50.830;4.364;2023-11-18T13:47:26;9.80;99.90
23079;DHT22;11707;50.830;4.364;2023-11-18T13:49:55;9.80;99.90
23079;DHT22;11707;50.830;4.364;2023-11-18T13:52:26;9.90;99.90
23079;DHT22;11707;50.830;4.364;2023-11-18T13:54:52;9.90;99.90
23079;DHT22;11707;50.830;4.364;2023-11-18T13:57:24;9.90;99.90
23079;DHT22;11707;50.830;4.364;2023-11-18T13:59:53;9.90;99.90
23079;DHT22;11707;50.830;4.364;2023-11-18T14:02:20;10.00;99.90
23079;DHT22;11707;50.830;4.364;2023-11-18T14:04:46;9.90;99.90
23079;DHT22;11707;50.830;4.364;2023-11-18T14:07:16;9.90;99.90
23079;DHT22;11707;50.830;4.364;2023-11-18T14:09:43;9.90;99.90
23079;DHT22;11707;50.830;4.364;2023-11-18T14:12:14;9.90;99.90
23079;DHT22;11707;50.830;4.364;2023-11-18T14:14:39;9.90;99.90
23079;DHT22;11707;50.830;4.364;2023-11-18T14:17:05;9.90;99.90
23079;DHT22;11707;50.830;4.364;2023-11-18T14:19:32;9.90;99.90
23079;DHT22;11707;50.830;4.364;2023-11-18T14:22:01;9.80;99.90
23079;DHT22;11707;50.830;4.364;2023-11-18T14:24:29;9.90;99.90
23079;DHT22;11707;50.830;4.364;2023-11-18T14:26:57;10.00;99.90
23079;DHT22;11707;50.830;4.364;2023-11-18T14:29:23;10.00;99.90
23079;DHT22;11707;50.830;4.364;2023-11-18T14:31:49;10.00;99.90
23079;DHT22;11707;50.830;4.364;2023-11-18T14:34:15;10.00;99.90
23079;DHT22;11707;50.830;4.364;2023-11-18T14:36:41;10.00;99.90
23079;DHT22;11707;50.830;4.364;2023-11-18T14:39:09;10.10;99.90
23079;DHT22;11707;50.830;4.364;2023-11-18T14:41:40;10.00;99.90
23079;DHT22;11707;50.830;4.364;2023-11-18T14:44:09;10.00;99.90
23079;DHT22;11707;50.830;4.364;2023-11-18T14:46:35;10.10;99.90
23079;DHT22;11707;50.830;4.364;2023-11-18T14:49:04;10.10;99.90
23079;DHT22;11707;50.830;4.364;2023-11-18T14:51:31;10.20;99.90
23079;DHT22;11707;50.830;4.364;2023-11-18T14:54:01;10.20;99.90
23079;DHT22;11707;50.830;4.364;2023-11-18T14:56:30;10.20;99.90
23079;DHT22;11707;50.830;4.364;2023-11-18T14:58:55;10.30;99.90
23079;DHT22;11707;50.830;4.364;2023-11-18T15:01:22;10.40;99.90
23079;DHT22;11707;50.830;4.364;2023-11-18T15:03:48;10.40;99.90
23079;DHT22;11707;50.830;4.364;2023-11-18T15:06:13;10.40;99.90
23079;DHT22;11707;50.830;4.364;2023-11-18T15:08:39;10.40;99.90
23079;DHT22;11707;50.830;4.364;2023-11-18T15:11:05;10.40;99.90
23079;DHT22;11707;50.830;4.364;2023-11-18T15:13:40;10.40;99.90
23079;DHT22;11707;50.830;4.364;2023-11-18T15:16:07;10.40;99.90
23079;DHT22;11707;50.830;4.364;2023-11-18T15:18:35;10.40;99.90
23079;DHT22;11707;50.830;4.364;2023-11-18T15:21:01;10.40;99.90
23079;DHT22;11707;50.830;4.364;2023-11-18T15:23:26;10.40;99.90
23079;DHT22;11707;50.830;4.364;2023-11-18T15:25:52;10.40;99.90
23079;DHT22;11707;50.830;4.364;2023-11-18T15:28:19;10.50;99.90
23079;DHT22;11707;50.830;4.364;2023-11-18T15:30:47;10.60;99.90
23079;DHT22;11707;50.830;4.364;2023-11-18T15:33:14;10.60;99.90
23079;DHT22;11707;50.830;4.364;2023-11-18T15:35:41;10.60;99.90
23079;DHT22;11707;50.830;4.364;2023-11-18T15:38:07;10.60;99.90
23079;DHT22;11707;50.830;4.364;2023-11-18T15:40:37;10.70;99.90
23079;DHT22;11707;50.830;4.364;2023-11-18T15:43:05;10.80;99.90
23079;DHT22;11707;50.830;4.364;2023-11-18T15:45:31;10.70;99.90
23079;DHT22;11707;50.830;4.364;2023-11-18T15:48:00;10.70;99.90
23079;DHT22;11707;50.830;4.364;2023-11-18T15:50:31;10.80;99.90
23079;DHT22;11707;50.830;4.364;2023-11-18T15:53:03;10.80;99.90
23079;DHT22;11707;50.830;4.364;2023-11-18T15:55:29;10.80;99.90
23079;DHT22;11707;50.830;4.364;2023-11-18T15:57:56;10.80;99.90
23079;DHT22;11707;50.830;4.364;2023-11-18T16:00:24;10.90;99.90
23079;DHT22;11707;50.830;4.364;2023-11-18T16:02:52;10.80;99.90
23079;DHT22;11707;50.830;4.364;2023-11-18T16:05:19;10.90;99.90
23079;DHT22;11707;50.830;4.364;2023-11-18T16:07:47;11.00;99.90
23079;DHT22;11707;50.830;4.364;2023-11-18T16:10:14;10.90;99.90
23079;DHT22;11707;50.830;4.364;2023-11-18T16:12:54;10.80;99.90
23079;DHT22;11707;50.830;4.364;2023-11-18T16:15:24;11.00;99.90
23079;DHT22;11707;50.830;4.364;2023-11-18T16:17:51;11.00;99.90
23079;DHT22;11707;50.830;4.364;2023-11-18T16:20:20;11.00;99.90
23079;DHT22;11707;50.830;4.364;2023-11-18T16:22:49;11.10;99.90